createdAt,value
2022-12-28T00:01:08.769Z,4.40
2022-12-28T00:02:11.663Z,4.00
2022-12-28T00:03:14.392Z,4.05
2022-12-28T00:04:17.219Z,4.18
2022-12-28T00:05:20.048Z,3.58
2022-12-28T00:06:24.711Z,4.40
2022-12-28T00:07:27.602Z,4.97
2022-12-28T00:08:30.570Z,4.75
2022-12-28T00:09:33.232Z,4.20
2022-12-28T00:11:07.601Z,3.75
2022-12-28T00:11:58.842Z,4.07
2022-12-28T00:13:01.538Z,3.67
2022-12-28T00:14:04.418Z,4.70
2022-12-28T00:15:07.550Z,3.95
2022-12-28T00:16:13.698Z,5.40
2022-12-28T00:17:16.511Z,4.50
2022-12-28T00:18:19.265Z,5.72
2022-12-28T00:19:21.971Z,4.78
2022-12-28T00:20:24.784Z,5.30
2022-12-28T00:21:28.135Z,4.90
2022-12-28T00:22:30.881Z,4.30
2022-12-28T00:23:33.779Z,4.72
2022-12-28T00:24:36.525Z,3.45
2022-12-28T00:25:39.204Z,4.13
2022-12-28T00:26:42.098Z,3.95
2022-12-28T00:27:44.963Z,4.20
2022-12-28T00:28:48.390Z,4.40
2022-12-28T00:29:51.331Z,4.38
2022-12-28T00:30:57.580Z,4.40
2022-12-28T00:32:00.848Z,4.50
2022-12-28T00:33:03.611Z,4.57
2022-12-28T00:34:06.334Z,5.05
2022-12-28T00:35:09.679Z,4.60
2022-12-28T00:36:13.982Z,4.18
2022-12-28T00:37:17.476Z,4.47
2022-12-28T00:38:20.501Z,4.82
2022-12-28T00:39:23.273Z,4.13
2022-12-28T00:40:26.077Z,3.85
2022-12-28T00:41:28.888Z,4.20
2022-12-28T00:42:31.649Z,4.35
2022-12-28T00:43:34.586Z,4.60
2022-12-28T00:44:37.396Z,5.45
2022-12-28T00:45:40.157Z,3.88
2022-12-28T00:46:42.935Z,3.78
2022-12-28T00:47:45.794Z,3.90
2022-12-28T00:48:48.514Z,4.85
2022-12-28T00:49:51.237Z,4.32
2022-12-28T00:51:08.114Z,4.35
2022-12-28T00:52:10.821Z,4.22
2022-12-28T00:53:13.974Z,4.25
2022-12-28T00:54:16.686Z,4.55
2022-12-28T00:55:19.496Z,3.90
2022-12-28T00:56:23.145Z,4.65
2022-12-28T00:57:25.947Z,4.15
2022-12-28T00:58:28.631Z,3.88
2022-12-28T00:59:31.393Z,4.50
2022-12-28T01:00:36.831Z,3.42
2022-12-28T01:01:40.930Z,4.00
2022-12-28T01:02:43.858Z,4.35
2022-12-28T01:03:47.410Z,4.28
2022-12-28T01:04:50.215Z,5.03
2022-12-28T01:05:53.024Z,4.35
2022-12-28T01:06:55.773Z,4.65
2022-12-28T01:07:59.159Z,4.78
2022-12-28T01:09:02.058Z,4.45
2022-12-28T01:10:05.365Z,4.40
2022-12-28T01:11:09.049Z,4.45
2022-12-28T01:12:11.784Z,4.90
2022-12-28T01:13:14.570Z,5.07
2022-12-28T01:14:17.378Z,4.82
2022-12-28T01:15:22.491Z,5.05
2022-12-28T01:16:33.248Z,4.85
2022-12-28T01:17:36.802Z,5.18
2022-12-28T01:18:39.545Z,5.10
2022-12-28T01:19:42.442Z,5.82
2022-12-28T01:20:45.242Z,4.50
2022-12-28T01:21:49.459Z,4.85
2022-12-28T01:22:52.166Z,4.45
2022-12-28T01:23:56.865Z,4.53
2022-12-28T01:25:00.047Z,4.45
2022-12-28T01:26:03.106Z,5.13
2022-12-28T01:27:05.915Z,4.78
2022-12-28T01:28:08.600Z,4.18
2022-12-28T01:29:12.004Z,5.30
2022-12-28T01:30:15.311Z,4.55
2022-12-28T01:31:19.723Z,4.00
2022-12-28T01:32:22.589Z,5.00
2022-12-28T01:33:25.283Z,3.47
2022-12-28T01:34:28.140Z,5.10
2022-12-28T01:35:30.918Z,4.78
2022-12-28T01:36:35.116Z,3.80
2022-12-28T01:37:37.929Z,4.47
2022-12-28T01:38:40.952Z,5.10
2022-12-28T01:39:43.655Z,4.40
2022-12-28T01:40:46.511Z,4.47
2022-12-28T01:41:49.221Z,3.78
2022-12-28T01:42:51.958Z,4.25
2022-12-28T01:43:54.998Z,5.00
2022-12-28T01:45:17.690Z,4.75
2022-12-28T01:46:27.190Z,4.13
2022-12-28T01:47:34.656Z,4.47
2022-12-28T01:48:46.468Z,4.40
2022-12-28T01:50:01.153Z,5.35
2022-12-28T01:51:04.537Z,4.10
2022-12-28T01:52:07.564Z,4.53
2022-12-28T01:53:10.462Z,4.90
2022-12-28T01:54:13.269Z,4.30
2022-12-28T01:55:31.112Z,4.80
2022-12-28T01:56:33.942Z,4.63
2022-12-28T01:57:43.290Z,4.43
2022-12-28T01:58:46.370Z,4.65
2022-12-28T01:59:54.821Z,4.80
2022-12-28T02:00:57.852Z,5.18
2022-12-28T02:02:00.995Z,4.47
2022-12-28T02:03:14.297Z,4.93
2022-12-28T02:04:17.655Z,4.45
2022-12-28T02:05:25.700Z,5.10
2022-12-28T02:06:29.328Z,4.70
2022-12-28T02:07:38.627Z,4.32
2022-12-28T02:09:37.047Z,5.05
2022-12-28T02:10:45.747Z,5.15
2022-12-28T02:11:51.866Z,4.95
2022-12-28T02:12:57.260Z,4.47
2022-12-28T02:14:00.600Z,4.82
2022-12-28T02:15:04.270Z,4.50
2022-12-28T02:16:08.528Z,4.65
2022-12-28T02:17:12.148Z,5.00
2022-12-28T02:18:16.495Z,5.18
2022-12-28T02:19:24.401Z,5.00
2022-12-28T02:20:33.755Z,4.78
2022-12-28T02:21:51.610Z,5.07
2022-12-28T02:23:13.864Z,4.40
2022-12-28T02:24:38.640Z,5.28
2022-12-28T02:25:55.176Z,4.90
2022-12-28T02:27:05.988Z,5.18
2022-12-28T02:28:41.652Z,5.45
2022-12-28T02:30:02.800Z,5.20
2022-12-28T02:31:44.885Z,5.45
2022-12-28T02:32:59.776Z,5.18
2022-12-28T02:34:06.152Z,5.05
2022-12-28T02:35:31.411Z,4.97
2022-12-28T02:36:39.663Z,5.03
2022-12-28T02:37:46.880Z,4.50
2022-12-28T02:38:54.693Z,4.53
2022-12-28T02:40:03.751Z,5.53
2022-12-28T02:41:21.505Z,4.57
2022-12-28T02:42:25.724Z,4.53
2022-12-28T02:43:28.580Z,5.05
2022-12-28T02:44:50.065Z,4.55
2022-12-28T02:46:11.628Z,4.40
2022-12-28T02:47:34.735Z,5.43
2022-12-28T02:49:00.423Z,5.38
2022-12-28T02:50:08.456Z,4.82
2022-12-28T02:51:41.469Z,4.72
2022-12-28T02:52:56.343Z,4.88
2022-12-28T02:54:47.164Z,4.40
2022-12-28T02:56:08.432Z,4.65
2022-12-28T02:57:59.382Z,5.45
2022-12-28T02:59:25.319Z,5.25
2022-12-28T03:00:40.158Z,5.45
2022-12-28T03:02:08.000Z,4.57
2022-12-28T03:03:22.625Z,4.70
2022-12-28T03:04:37.323Z,5.80
2022-12-28T03:06:19.279Z,5.78
2022-12-28T03:07:58.262Z,5.13
2022-12-28T03:09:28.468Z,4.68
2022-12-28T03:10:40.707Z,4.40
2022-12-28T03:12:07.751Z,5.63
2022-12-28T03:13:33.641Z,5.07
2022-12-28T03:14:43.987Z,5.88
2022-12-28T03:15:47.305Z,5.90
2022-12-28T03:17:10.345Z,5.25
2022-12-28T03:18:34.871Z,5.30
2022-12-28T03:20:03.609Z,5.53
2022-12-28T03:21:27.631Z,5.82
2022-12-28T03:22:50.688Z,6.18
2022-12-28T03:24:14.083Z,5.40
2022-12-28T03:25:41.531Z,5.50
2022-12-28T03:27:07.563Z,5.53
2022-12-28T03:28:37.808Z,6.00
2022-12-28T03:30:13.110Z,5.10
2022-12-28T03:31:19.385Z,5.60
2022-12-28T03:32:27.422Z,5.80
2022-12-28T03:33:30.315Z,6.53
2022-12-28T03:34:33.491Z,5.13
2022-12-28T03:35:58.595Z,5.88
2022-12-28T03:37:28.028Z,5.75
2022-12-28T03:38:54.388Z,5.97
2022-12-28T03:40:02.980Z,5.63
2022-12-28T03:41:15.006Z,5.82
2022-12-28T03:42:45.312Z,6.38
2022-12-28T03:43:57.690Z,8.70
2022-12-28T03:45:45.469Z,11.10
2022-12-28T03:47:01.345Z,10.13
2022-12-28T03:48:05.384Z,11.07
2022-12-28T03:49:09.399Z,11.90
2022-12-28T03:50:12.344Z,11.75
2022-12-28T03:51:16.982Z,10.80
2022-12-28T03:52:19.905Z,10.02
2022-12-28T03:53:30.706Z,10.52
2022-12-28T03:54:34.679Z,7.70
2022-12-28T03:55:38.086Z,8.13
2022-12-28T03:56:47.244Z,8.70
2022-12-28T03:57:50.794Z,7.07
2022-12-28T03:58:58.163Z,8.32
2022-12-28T04:00:10.857Z,7.68
2022-12-28T04:01:18.742Z,8.77
2022-12-28T04:02:21.712Z,9.07
2022-12-28T04:03:24.564Z,8.27
2022-12-28T04:04:27.348Z,9.57
2022-12-28T04:05:30.641Z,8.85
2022-12-28T04:06:34.035Z,8.73
2022-12-28T04:07:37.021Z,8.43
2022-12-28T04:08:39.950Z,8.57
2022-12-28T04:09:42.725Z,9.00
2022-12-28T04:10:46.859Z,8.32
2022-12-28T04:11:49.660Z,8.88
2022-12-28T04:13:00.232Z,7.65
2022-12-28T04:14:13.621Z,7.85
2022-12-28T04:15:19.271Z,9.80
2022-12-28T04:16:23.558Z,7.78
2022-12-28T04:17:28.670Z,9.18
2022-12-28T04:18:32.835Z,12.50
2022-12-28T04:19:35.603Z,11.65
2022-12-28T04:20:38.515Z,11.95
2022-12-28T04:21:41.210Z,10.15
2022-12-28T04:22:44.735Z,9.90
2022-12-28T04:23:47.711Z,8.88
2022-12-28T04:24:56.499Z,7.05
2022-12-28T04:26:02.923Z,8.55
2022-12-28T04:27:05.909Z,7.47
2022-12-28T04:28:09.031Z,7.95
2022-12-28T04:29:30.166Z,9.10
2022-12-28T04:30:36.344Z,8.25
2022-12-28T04:31:39.123Z,7.38
2022-12-28T04:32:47.945Z,7.28
2022-12-28T04:33:50.785Z,7.10
2022-12-28T04:34:53.799Z,8.30
2022-12-28T04:36:05.715Z,7.95
2022-12-28T04:37:08.482Z,6.45
2022-12-28T04:38:11.272Z,6.85
2022-12-28T04:39:14.045Z,5.82
2022-12-28T04:40:16.738Z,6.65
2022-12-28T04:41:19.732Z,6.10
2022-12-28T04:42:22.504Z,5.53
2022-12-28T04:43:25.208Z,5.90
2022-12-28T04:44:27.940Z,5.47
2022-12-28T04:45:30.672Z,6.20
2022-12-28T04:46:33.517Z,5.72
2022-12-28T04:47:36.263Z,5.72
2022-12-28T04:48:39.114Z,6.57
2022-12-28T04:49:41.842Z,6.03
2022-12-28T04:50:45.196Z,5.53
2022-12-28T04:51:48.276Z,5.85
2022-12-28T04:52:51.296Z,5.78
2022-12-28T04:53:54.935Z,5.47
2022-12-28T04:54:57.710Z,5.18
2022-12-28T04:56:04.695Z,6.03
2022-12-28T04:57:07.596Z,6.22
2022-12-28T04:58:10.485Z,5.70
2022-12-28T04:59:13.230Z,5.63
2022-12-28T05:00:18.531Z,6.03
2022-12-28T05:01:21.365Z,5.55
2022-12-28T05:02:26.771Z,6.15
2022-12-28T05:03:29.568Z,5.85
2022-12-28T05:04:32.301Z,5.88
2022-12-28T05:05:35.055Z,5.05
2022-12-28T05:06:37.757Z,5.70
2022-12-28T05:07:40.558Z,7.20
2022-12-28T05:08:44.016Z,5.85
2022-12-28T05:09:46.758Z,5.90
2022-12-28T05:10:49.446Z,5.95
2022-12-28T05:11:52.585Z,7.05
2022-12-28T05:12:56.460Z,5.25
2022-12-28T05:13:59.341Z,5.88
2022-12-28T05:15:02.101Z,5.63
2022-12-28T05:16:07.247Z,6.47
2022-12-28T05:17:10.057Z,6.18
2022-12-28T05:18:12.853Z,6.47
2022-12-28T05:19:15.646Z,5.82
2022-12-28T05:20:20.680Z,6.00
2022-12-28T05:21:26.473Z,6.45
2022-12-28T05:22:29.207Z,5.65
2022-12-28T05:23:32.251Z,6.20
2022-12-28T05:24:34.985Z,6.25
2022-12-28T05:25:37.733Z,6.78
2022-12-28T05:26:40.485Z,6.68
2022-12-28T05:27:43.301Z,5.65
2022-12-28T05:28:46.360Z,6.45
2022-12-28T05:29:49.216Z,5.75
2022-12-28T05:30:52.422Z,6.75
2022-12-28T05:31:55.165Z,6.82
2022-12-28T05:32:58.243Z,6.30
2022-12-28T05:34:01.166Z,6.15
2022-12-28T05:35:04.057Z,6.72
2022-12-28T05:36:08.885Z,6.10
2022-12-28T05:37:15.652Z,7.53
2022-12-28T05:38:21.307Z,6.53
2022-12-28T05:39:24.544Z,5.90
2022-12-28T05:40:27.500Z,6.78
2022-12-28T05:41:30.888Z,7.57
2022-12-28T05:42:35.578Z,7.13
2022-12-28T05:43:38.371Z,6.70
2022-12-28T05:44:41.547Z,7.50
2022-12-28T05:45:44.266Z,7.53
2022-12-28T05:46:46.996Z,7.18
2022-12-28T05:47:49.815Z,7.38
2022-12-28T05:48:55.227Z,6.80
2022-12-28T05:49:58.128Z,7.68
2022-12-28T05:51:09.076Z,7.40
2022-12-28T05:52:11.830Z,7.45
2022-12-28T05:53:14.581Z,7.10
2022-12-28T05:54:17.489Z,8.50
2022-12-28T05:55:20.228Z,9.27
2022-12-28T05:56:25.519Z,9.10
2022-12-28T05:57:28.371Z,10.20
2022-12-28T05:58:31.823Z,10.68
2022-12-28T05:59:34.819Z,10.02
2022-12-28T06:00:37.630Z,8.23
2022-12-28T06:01:42.625Z,9.40
2022-12-28T06:02:45.548Z,9.15
2022-12-28T06:03:53.971Z,9.35
2022-12-28T06:04:56.874Z,8.93
2022-12-28T06:06:23.460Z,10.02
2022-12-28T06:07:26.265Z,8.30
2022-12-28T06:08:29.013Z,8.07
2022-12-28T06:09:33.210Z,7.43
2022-12-28T06:10:36.555Z,7.95
2022-12-28T06:11:39.578Z,9.30
2022-12-28T06:12:42.433Z,7.68
2022-12-28T06:13:45.475Z,8.13
2022-12-28T06:14:48.453Z,7.85
2022-12-28T06:15:51.209Z,8.48
2022-12-28T06:16:54.135Z,8.05
2022-12-28T06:17:56.932Z,7.95
2022-12-28T06:19:00.158Z,8.88
2022-12-28T06:20:02.903Z,9.07
2022-12-28T06:21:10.279Z,8.55
2022-12-28T06:22:13.169Z,7.68
2022-12-28T06:23:15.999Z,8.38
2022-12-28T06:24:19.086Z,8.02
2022-12-28T06:25:21.964Z,8.35
2022-12-28T06:26:25.591Z,7.80
2022-12-28T06:27:28.329Z,8.95
2022-12-28T06:28:31.441Z,8.95
2022-12-28T06:29:34.152Z,8.15
2022-12-28T06:30:36.986Z,7.90
2022-12-28T06:31:41.653Z,7.85
2022-12-28T06:32:44.428Z,7.50
2022-12-28T06:33:48.479Z,8.38
2022-12-28T06:34:51.425Z,7.43
2022-12-28T06:35:54.211Z,7.65
2022-12-28T06:36:58.152Z,7.90
2022-12-28T06:38:01.138Z,7.90
2022-12-28T06:39:05.650Z,7.53
2022-12-28T06:40:08.828Z,8.68
2022-12-28T06:41:14.606Z,6.70
2022-12-28T06:42:17.789Z,7.38
2022-12-28T06:43:20.558Z,8.30
2022-12-28T06:44:23.362Z,8.68
2022-12-28T06:45:26.205Z,8.70
2022-12-28T06:46:30.543Z,8.50
2022-12-28T06:47:36.162Z,8.80
2022-12-28T06:48:39.549Z,7.80
2022-12-28T06:49:42.394Z,8.57
2022-12-28T06:50:45.105Z,7.93
2022-12-28T06:51:47.941Z,7.82
2022-12-28T06:52:50.756Z,7.15
2022-12-28T06:53:54.283Z,7.53
2022-12-28T06:54:57.197Z,8.20
2022-12-28T06:56:02.351Z,9.25
2022-12-28T06:57:05.070Z,8.10
2022-12-28T06:58:07.981Z,8.73
2022-12-28T06:59:11.077Z,7.70
2022-12-28T07:00:14.350Z,7.72
2022-12-28T07:01:20.285Z,7.30
2022-12-28T07:02:23.398Z,7.70
2022-12-28T07:03:26.422Z,8.05
2022-12-28T07:04:29.193Z,7.65
2022-12-28T07:05:32.127Z,8.02
2022-12-28T07:06:43.293Z,8.55
2022-12-28T07:07:46.487Z,7.35
2022-12-28T07:08:50.577Z,8.75
2022-12-28T07:09:53.314Z,7.80
2022-12-28T07:10:56.176Z,8.30
2022-12-28T07:11:58.869Z,7.63
2022-12-28T07:13:01.809Z,7.60
2022-12-28T07:14:04.813Z,8.55
2022-12-28T07:15:08.203Z,8.25
2022-12-28T07:17:32.349Z,8.45
2022-12-28T07:18:35.264Z,7.82
2022-12-28T07:19:38.028Z,7.88
2022-12-28T07:20:40.803Z,8.23
2022-12-28T07:21:43.571Z,7.60
2022-12-28T07:22:46.293Z,7.57
2022-12-28T07:23:50.590Z,8.02
2022-12-28T07:24:53.486Z,8.05
2022-12-28T07:25:57.855Z,7.70
2022-12-28T07:27:00.611Z,8.10
2022-12-28T07:28:03.589Z,8.27
2022-12-28T07:29:07.599Z,8.32
2022-12-28T07:30:10.843Z,7.03
2022-12-28T07:31:16.824Z,7.15
2022-12-28T07:32:19.544Z,8.40
2022-12-28T07:33:22.308Z,8.23
2022-12-28T07:34:25.245Z,8.07
2022-12-28T07:35:27.942Z,8.35
2022-12-28T07:36:32.297Z,8.38
2022-12-28T07:37:35.005Z,9.15
2022-12-28T07:38:38.193Z,8.13
2022-12-28T07:39:41.009Z,9.05
2022-12-28T07:40:43.758Z,8.43
2022-12-28T07:41:46.805Z,8.55
2022-12-28T07:42:53.202Z,9.10
2022-12-28T07:43:56.618Z,9.38
2022-12-28T07:44:59.464Z,9.13
2022-12-28T07:46:03.142Z,9.43
2022-12-28T07:47:05.879Z,9.13
2022-12-28T07:48:08.711Z,8.00
2022-12-28T07:49:11.731Z,7.90
2022-12-28T07:50:14.518Z,8.13
2022-12-28T07:51:20.327Z,8.32
2022-12-28T07:52:23.136Z,9.00
2022-12-28T07:53:26.171Z,8.35
2022-12-28T07:54:28.841Z,7.88
2022-12-28T07:55:32.137Z,9.35
2022-12-28T07:57:37.058Z,7.82
2022-12-28T07:59:42.713Z,7.85
2022-12-28T08:00:45.499Z,8.90
2022-12-28T08:01:50.229Z,9.18
2022-12-28T08:02:56.268Z,7.95
2022-12-28T08:04:01.498Z,8.18
2022-12-28T08:05:04.579Z,7.57
2022-12-28T08:06:09.946Z,7.55
2022-12-28T08:07:12.810Z,8.02
2022-12-28T08:08:15.567Z,6.85
2022-12-28T08:09:18.359Z,7.50
2022-12-28T08:10:21.092Z,8.82
2022-12-28T08:11:25.796Z,7.93
2022-12-28T08:12:28.771Z,8.40
2022-12-28T08:13:33.565Z,8.02
2022-12-28T08:14:36.350Z,7.57
2022-12-28T08:15:39.132Z,7.68
2022-12-28T08:16:44.053Z,8.93
2022-12-28T08:17:46.908Z,7.65
2022-12-28T08:18:50.176Z,7.30
2022-12-28T08:19:55.638Z,8.07
2022-12-28T08:21:06.810Z,7.35
2022-12-28T08:22:09.768Z,7.55
2022-12-28T08:23:12.697Z,6.95
2022-12-28T08:24:18.425Z,8.30
2022-12-28T08:25:21.184Z,7.28
2022-12-28T08:26:26.722Z,8.45
2022-12-28T08:27:34.995Z,7.45
2022-12-28T08:28:42.293Z,7.38
2022-12-28T08:29:45.039Z,7.60
2022-12-28T08:30:47.889Z,7.10
2022-12-28T08:31:50.875Z,7.88
2022-12-28T08:32:53.771Z,7.28
2022-12-28T08:33:58.094Z,7.10
2022-12-28T08:35:00.775Z,8.00
2022-12-28T08:36:05.054Z,6.72
2022-12-28T08:37:07.737Z,6.60
2022-12-28T08:38:10.650Z,6.40
2022-12-28T08:39:14.509Z,6.88
2022-12-28T08:40:17.368Z,7.63
2022-12-28T08:41:24.751Z,9.05
2022-12-28T08:42:27.501Z,7.47
2022-12-28T08:43:31.062Z,8.30
2022-12-28T08:44:33.876Z,7.57
2022-12-28T08:45:36.759Z,8.65
2022-12-28T08:46:41.300Z,7.07
2022-12-28T08:47:44.354Z,7.85
2022-12-28T08:48:48.855Z,7.53
2022-12-28T08:49:51.540Z,7.13
2022-12-28T08:50:54.490Z,7.03
2022-12-28T08:51:57.645Z,6.57
2022-12-28T08:53:00.561Z,6.40
2022-12-28T08:54:04.110Z,7.35
2022-12-28T08:55:07.111Z,7.40
2022-12-28T08:56:22.016Z,7.63
2022-12-28T08:57:24.752Z,6.60
2022-12-28T08:58:27.425Z,6.97
2022-12-28T08:59:30.185Z,6.60
2022-12-28T09:00:32.888Z,7.00
2022-12-28T09:01:44.192Z,7.95
2022-12-28T09:02:47.384Z,8.18
2022-12-28T09:03:52.952Z,7.13
2022-12-28T09:04:55.714Z,6.85
2022-12-28T09:05:58.379Z,6.88
2022-12-28T09:07:01.435Z,7.80
2022-12-28T09:08:04.872Z,7.05
2022-12-28T09:09:10.981Z,5.70
2022-12-28T09:10:13.756Z,6.32
2022-12-28T09:11:16.821Z,6.30
2022-12-28T09:12:19.487Z,6.78
2022-12-28T09:13:22.216Z,6.78
2022-12-28T09:14:25.039Z,6.40
2022-12-28T09:15:27.803Z,6.25
2022-12-28T09:16:30.883Z,6.22
2022-12-28T09:17:33.781Z,6.40
2022-12-28T09:18:37.430Z,7.70
2022-12-28T09:19:40.171Z,8.50
2022-12-28T09:20:47.724Z,8.50
2022-12-28T09:21:53.361Z,8.15
2022-12-28T09:22:56.326Z,8.55
2022-12-28T09:23:59.061Z,8.18
2022-12-28T09:25:01.929Z,8.27
2022-12-28T09:26:12.236Z,6.60
2022-12-28T09:27:16.063Z,6.15
2022-12-28T09:28:18.792Z,5.43
2022-12-28T09:29:21.814Z,6.47
2022-12-28T09:30:24.583Z,5.97
2022-12-28T09:31:29.762Z,6.28
2022-12-28T09:32:32.746Z,6.57
2022-12-28T09:35:17.790Z,5.78
2022-12-28T09:36:22.433Z,6.18
2022-12-28T09:37:25.195Z,6.07
2022-12-28T09:38:27.960Z,6.35
2022-12-28T09:39:31.080Z,6.13
2022-12-28T09:40:37.037Z,6.10
2022-12-28T09:41:45.406Z,6.32
2022-12-28T09:42:48.211Z,6.25
2022-12-28T09:44:11.612Z,6.00
2022-12-28T09:45:14.569Z,5.72
2022-12-28T09:46:19.280Z,6.53
2022-12-28T09:47:35.526Z,6.78
2022-12-28T09:48:39.278Z,6.18
2022-12-28T09:49:56.741Z,6.25
2022-12-28T09:50:59.469Z,5.75
2022-12-28T09:52:22.784Z,5.55
2022-12-28T09:53:29.415Z,5.43
2022-12-28T09:54:32.107Z,5.63
2022-12-28T09:55:38.458Z,6.30
2022-12-28T09:56:43.153Z,5.47
2022-12-28T09:57:51.141Z,6.20
2022-12-28T09:58:54.555Z,5.20
2022-12-28T09:59:57.287Z,5.28
2022-12-28T10:01:03.205Z,5.45
2022-12-28T10:02:17.894Z,6.10
2022-12-28T10:03:46.924Z,5.43
2022-12-28T10:04:50.563Z,5.40
2022-12-28T10:05:55.503Z,5.45
2022-12-28T10:07:01.885Z,5.80
2022-12-28T10:08:05.920Z,5.32
2022-12-28T10:09:13.851Z,5.53
2022-12-28T10:10:19.600Z,5.38
2022-12-28T10:11:39.105Z,6.07
2022-12-28T10:12:43.693Z,4.75
2022-12-28T10:13:55.403Z,4.55
2022-12-28T10:14:59.591Z,5.53
2022-12-28T10:16:06.000Z,5.97
2022-12-28T10:17:15.708Z,5.18
2022-12-28T10:18:26.892Z,5.75
2022-12-28T10:19:30.598Z,5.53
2022-12-28T10:20:33.936Z,5.13
2022-12-28T10:21:36.797Z,5.45
2022-12-28T10:22:44.876Z,5.05
2022-12-28T10:25:18.272Z,5.57
2022-12-28T10:26:21.036Z,5.82
2022-12-28T10:27:27.431Z,5.97
2022-12-28T10:28:37.901Z,5.40
2022-12-28T10:29:42.043Z,5.28
2022-12-28T10:31:04.817Z,4.65
2022-12-28T10:32:15.213Z,5.28
2022-12-28T10:33:19.440Z,4.80
2022-12-28T10:34:22.815Z,5.40
2022-12-28T10:35:49.958Z,5.57
2022-12-28T10:36:54.001Z,5.57
2022-12-28T10:38:02.924Z,5.22
2022-12-28T10:39:05.706Z,4.95
2022-12-28T10:40:22.935Z,5.70
2022-12-28T10:41:34.574Z,5.00
2022-12-28T10:42:40.365Z,6.25
2022-12-28T10:43:58.531Z,6.25
2022-12-28T10:45:32.612Z,5.90
2022-12-28T10:46:35.607Z,5.70
2022-12-28T10:47:47.280Z,6.03
2022-12-28T10:48:53.372Z,5.50
2022-12-28T10:50:27.049Z,5.30
2022-12-28T10:51:24.359Z,6.43
2022-12-28T10:52:27.562Z,6.22
2022-12-28T10:53:42.886Z,5.28
2022-12-28T10:54:48.966Z,5.85
2022-12-28T10:56:22.198Z,5.47
2022-12-28T10:57:27.736Z,5.63
2022-12-28T10:58:32.845Z,5.82
2022-12-28T10:59:36.305Z,4.75
2022-12-28T11:00:39.716Z,6.13
2022-12-28T11:01:43.837Z,5.90
2022-12-28T11:02:47.223Z,5.13
2022-12-28T11:03:53.000Z,5.68
2022-12-28T11:05:02.897Z,5.15
2022-12-28T11:06:14.251Z,5.18
2022-12-28T11:07:36.522Z,4.63
2022-12-28T11:08:40.219Z,5.30
2022-12-28T11:09:43.147Z,5.07
2022-12-28T11:10:45.916Z,4.78
2022-12-28T11:11:50.103Z,4.82
2022-12-28T11:12:55.548Z,5.20
2022-12-28T11:14:18.580Z,4.63
2022-12-28T11:15:24.620Z,4.75
2022-12-28T11:16:27.407Z,5.30
2022-12-28T11:17:34.960Z,5.45
2022-12-28T11:18:38.216Z,4.80
2022-12-28T11:19:41.062Z,5.68
2022-12-28T11:20:49.416Z,5.13
2022-12-28T11:21:53.325Z,5.53
2022-12-28T11:22:56.201Z,5.20
2022-12-28T11:23:59.159Z,4.65
2022-12-28T11:25:02.389Z,4.97
2022-12-28T11:26:05.233Z,5.43
2022-12-28T11:27:12.625Z,4.95
2022-12-28T11:28:24.189Z,4.90
2022-12-28T11:29:27.696Z,5.68
2022-12-28T11:30:32.012Z,5.95
2022-12-28T11:31:35.578Z,4.85
2022-12-28T11:32:43.193Z,5.38
2022-12-28T11:33:50.931Z,5.32
2022-12-28T11:34:54.937Z,5.30
2022-12-28T11:35:59.948Z,4.82
2022-12-28T11:37:03.517Z,5.07
2022-12-28T11:38:07.661Z,5.57
2022-12-28T11:39:25.980Z,5.53
2022-12-28T11:40:43.661Z,4.70
2022-12-28T11:42:10.490Z,4.90
2022-12-28T11:43:29.388Z,4.30
2022-12-28T11:44:40.863Z,4.90
2022-12-28T11:45:55.462Z,4.97
2022-12-28T11:47:16.225Z,4.90
2022-12-28T11:48:43.782Z,5.88
2022-12-28T11:49:48.005Z,4.95
2022-12-28T11:50:54.340Z,4.95
2022-12-28T11:52:34.514Z,5.78
2022-12-28T11:53:46.047Z,5.32
2022-12-28T11:55:11.819Z,4.43
2022-12-28T11:56:16.312Z,5.07
2022-12-28T11:57:41.265Z,4.97
2022-12-28T11:58:46.812Z,4.63
2022-12-28T11:59:49.839Z,5.20
2022-12-28T12:00:52.563Z,5.25
2022-12-28T12:02:03.178Z,5.35
2022-12-28T12:03:05.935Z,4.78
2022-12-28T12:04:17.759Z,5.90
2022-12-28T12:05:38.730Z,4.60
2022-12-28T12:06:45.067Z,5.00
2022-12-28T12:07:48.504Z,4.95
2022-12-28T12:08:51.384Z,5.80
2022-12-28T12:10:14.809Z,6.00
2022-12-28T12:11:27.898Z,7.00
2022-12-28T12:12:30.608Z,6.00
2022-12-28T12:13:42.579Z,6.05
2022-12-28T12:14:55.470Z,6.18
2022-12-28T12:16:08.377Z,6.63
2022-12-28T12:17:30.170Z,5.68
2022-12-28T12:18:46.482Z,6.18
2022-12-28T12:19:52.467Z,5.75
2022-12-28T12:21:00.752Z,5.90
2022-12-28T12:22:07.254Z,5.30
2022-12-28T12:23:26.495Z,6.10
2022-12-28T12:24:32.894Z,5.35
2022-12-28T12:25:42.549Z,6.63
2022-12-28T12:26:51.700Z,5.72
2022-12-28T12:27:58.184Z,4.97
2022-12-28T12:29:11.631Z,5.85
2022-12-28T12:30:19.573Z,5.45
2022-12-28T12:31:31.456Z,5.63
2022-12-28T12:32:58.850Z,6.50
2022-12-28T12:34:41.886Z,5.47
2022-12-28T12:35:57.747Z,5.55
2022-12-28T12:37:33.728Z,5.95
2022-12-28T12:38:58.644Z,6.38
2022-12-28T12:40:21.323Z,5.50
2022-12-28T12:41:35.636Z,5.43
2022-12-28T12:43:03.097Z,5.30
2022-12-28T12:44:34.845Z,5.68
2022-12-28T12:46:13.321Z,6.28
2022-12-28T12:47:52.861Z,5.80
2022-12-28T12:49:01.586Z,5.53
2022-12-28T12:50:37.198Z,6.18
2022-12-28T12:51:51.300Z,6.07
2022-12-28T12:53:21.951Z,5.55
2022-12-28T12:54:57.342Z,6.63
2022-12-28T12:56:03.260Z,6.00
2022-12-28T12:57:21.686Z,5.78
2022-12-28T12:58:32.297Z,5.43
2022-12-28T12:59:53.424Z,5.60
2022-12-28T13:01:14.309Z,5.55
2022-12-28T13:03:35.377Z,5.70
2022-12-28T13:04:41.324Z,7.50
2022-12-28T13:05:57.406Z,6.20
2022-12-28T13:07:03.859Z,6.38
2022-12-28T13:08:06.797Z,6.38
2022-12-28T13:09:16.041Z,6.63
2022-12-28T13:10:45.065Z,5.72
2022-12-28T13:11:48.376Z,6.43
2022-12-28T13:12:52.608Z,5.47
2022-12-28T13:13:56.306Z,5.68
2022-12-28T13:15:02.882Z,5.30
2022-12-28T13:16:22.065Z,5.60
2022-12-28T13:17:25.487Z,6.00
2022-12-28T13:18:45.274Z,6.22
2022-12-28T13:19:48.869Z,5.82
2022-12-28T13:21:08.766Z,5.78
2022-12-28T13:22:32.397Z,6.70
2022-12-28T13:23:44.254Z,5.35
2022-12-28T13:24:47.145Z,6.05
2022-12-28T13:25:53.098Z,6.95
2022-12-28T13:26:58.005Z,6.32
2022-12-28T13:28:04.036Z,5.95
2022-12-28T13:29:09.790Z,6.18
2022-12-28T13:30:18.866Z,5.65
2022-12-28T13:31:39.172Z,6.25
2022-12-28T13:32:53.917Z,6.72
2022-12-28T13:34:05.515Z,5.63
2022-12-28T13:35:19.031Z,5.53
2022-12-28T13:36:21.848Z,5.70
2022-12-28T13:37:24.605Z,6.25
2022-12-28T13:38:27.439Z,5.95
2022-12-28T13:39:35.499Z,5.15
2022-12-28T13:40:53.138Z,5.75
2022-12-28T13:42:11.643Z,5.45
2022-12-28T13:43:44.762Z,5.47
2022-12-28T13:45:02.983Z,5.65
2022-12-28T13:46:08.666Z,6.25
2022-12-28T13:47:30.257Z,6.43
2022-12-28T13:48:33.000Z,5.45
2022-12-28T13:49:55.517Z,5.78
2022-12-28T13:50:58.289Z,5.43
2022-12-28T13:52:01.775Z,6.28
2022-12-28T13:53:12.275Z,6.22
2022-12-28T13:54:15.119Z,5.95
2022-12-28T13:55:24.351Z,5.95
2022-12-28T13:56:28.068Z,5.68
2022-12-28T13:57:51.481Z,5.63
2022-12-28T13:59:01.085Z,5.60
2022-12-28T14:00:05.001Z,4.97
2022-12-28T14:01:13.342Z,5.43
2022-12-28T14:02:19.458Z,5.88
2022-12-28T14:03:22.840Z,5.68
2022-12-28T14:04:52.221Z,6.43
2022-12-28T14:05:55.120Z,5.13
2022-12-28T14:06:57.954Z,5.45
2022-12-28T14:08:01.190Z,6.10
2022-12-28T14:09:05.975Z,5.85
2022-12-28T14:10:10.787Z,4.60
2022-12-28T14:11:13.778Z,5.15
2022-12-28T14:12:17.027Z,5.35
2022-12-28T14:13:20.120Z,6.35
2022-12-28T14:14:22.876Z,5.55
2022-12-28T14:15:25.860Z,6.20
2022-12-28T14:16:30.292Z,6.13
2022-12-28T14:17:33.324Z,5.47
2022-12-28T14:18:36.130Z,5.97
2022-12-28T14:19:39.331Z,6.18
2022-12-28T14:20:49.974Z,6.07
2022-12-28T14:21:52.656Z,5.72
2022-12-28T14:22:55.572Z,6.40
2022-12-28T14:24:10.961Z,5.68
2022-12-28T14:25:16.166Z,6.25
2022-12-28T14:26:21.373Z,6.80
2022-12-28T14:27:24.377Z,6.43
2022-12-28T14:28:34.107Z,5.70
2022-12-28T14:29:36.821Z,6.43
2022-12-28T14:30:42.617Z,5.70
2022-12-28T14:31:45.564Z,5.53
2022-12-28T14:32:48.571Z,6.03
2022-12-28T14:33:53.146Z,5.07
2022-12-28T14:34:59.462Z,5.30
2022-12-28T14:36:04.635Z,5.45
2022-12-28T14:37:17.693Z,6.22
2022-12-28T14:38:42.981Z,5.10
2022-12-28T14:39:45.987Z,5.22
2022-12-28T14:40:59.955Z,5.95
2022-12-28T14:42:04.377Z,5.32
2022-12-28T14:43:26.683Z,5.18
2022-12-28T14:44:32.816Z,5.35
2022-12-28T14:46:05.262Z,5.32
2022-12-28T14:47:33.471Z,5.03
2022-12-28T14:48:40.205Z,4.90
2022-12-28T14:49:44.479Z,5.20
2022-12-28T14:51:03.922Z,5.38
2022-12-28T14:52:09.466Z,4.45
2022-12-28T14:53:15.966Z,5.50
2022-12-28T14:54:22.560Z,4.75
2022-12-28T14:55:32.127Z,5.97
2022-12-28T14:56:35.439Z,5.75
2022-12-28T14:57:42.141Z,5.43
2022-12-28T14:58:52.917Z,6.00
2022-12-28T15:01:11.389Z,4.65
2022-12-28T15:02:35.724Z,4.68
2022-12-28T15:03:57.141Z,4.47
2022-12-28T15:05:01.129Z,5.30
2022-12-28T15:06:04.135Z,5.22
2022-12-28T15:07:09.082Z,5.00
2022-12-28T15:08:12.419Z,5.32
2022-12-28T15:09:16.527Z,5.97
2022-12-28T15:10:20.197Z,5.55